Time;durP1;ratioP1;P1;durP2;ratioP2;P2;SDS_P1;SDS_P2;PMS_P1;PMS_P2;Temp;Humidity;BMP_temperature;BMP_pressure;BME280_temperature;BME280_humidity;BME280_pressure;Samples;Min_cycle;Max_cycle;Signal;HPM_P1;HPM_P2
2022/07/21 00:00:35;;;;;;;;;;;;;;;;;;5037685;28;20264;-27
2022/07/21 00:03:01;;;;;;;;;;;;;;;;;;5037276;28;19909;-27
2022/07/21 00:05:27;;;;;;;;;;;;;;;;;;5037904;28;19913;-27
2022/07/21 00:07:53;;;;;;;;;;;;;;;;;;5037567;28;20399;-27
2022/07/21 00:10:19;;;;;;;;;;;;;;;;;;5037451;28;19917;-27
2022/07/21 00:12:45;;;;;;;;;;;;;;;;;;5037387;28;20003;-27
2022/07/21 00:15:12;;;;;;;;;;;;;;;;;;5037458;28;19913;-27
2022/07/21 00:17:38;;;;;;;;;;;;;;;;;;5037356;28;20260;-27
2022/07/21 00:20:04;;;;;;;;;;;;;;;;;;5037358;28;19913;-27
2022/07/21 00:22:30;;;;;;;;;;;;;;;;;;5037195;28;19909;-27
2022/07/21 00:24:56;;;;;;;;;;;;;;;;;;5037238;28;19916;-27
2022/07/21 00:27:22;;;;;;;;;;;;;;;;;;5037742;28;19924;-27
2022/07/21 00:29:48;;;;;;;;;;;;;;;;;;5037374;28;19913;-27
2022/07/21 00:32:14;;;;;;;;;;;;;;;;;;5037047;28;20264;-26
2022/07/21 00:34:40;;;;;;;;;;;;;;;;;;5037104;28;19909;-27
2022/07/21 00:37:06;;;;;;;;;;;;;;;;;;5037013;28;19913;-27
2022/07/21 00:39:32;;;;;;;;;;;;;;;;;;5037025;28;19999;-27
2022/07/21 00:41:58;;;;;;;;;;;;;;;;;;5036854;28;19913;-27
2022/07/21 00:44:24;;;;;;;;;;;;;;;;;;5036717;28;19921;-27
2022/07/21 00:46:50;;;;;;;;;;;;;;;;;;5037097;28;19924;-27
2022/07/21 00:49:17;;;;;;;;;;;;;;;;;;5036713;28;20233;-26
2022/07/21 00:51:43;;;;;;;;;;;;;;;;;;5037307;28;19924;-27
2022/07/21 00:54:09;;;;;;;;;;;;;;;;;;5036708;28;19909;-26
2022/07/21 00:56:35;;;;;;;;;;;;;;;;;;5036650;28;19968;-26
2022/07/21 00:59:00;;;;;;;;;;;;;;;;;;5037150;28;19913;-26
2022/07/21 01:01:27;;;;;;;;;;;;;;;;;;5036598;28;19913;-26
2022/07/21 01:03:53;;;;;;;;;;;;;;;;;;5036404;28;20316;-26
2022/07/21 01:06:19;;;;;;;;;;;;;;;;;;5036538;28;19967;-27
2022/07/21 01:08:44;;;;;;;;;;;;;;;;;;5036369;28;19913;-26
2022/07/21 01:11:10;;;;;;;;;;;;;;;;;;5036830;28;20267;-26
2022/07/21 01:13:41;;;;;;;;;;;;;;;;;;5035549;28;19910;-26
2022/07/21 01:16:07;;;;;;;;;;;;;;;;;;5037041;28;19913;-26
2022/07/21 01:18:33;;;;;;;;;;;;;;;;;;5036235;28;19957;-26
2022/07/21 01:20:59;;;;;;;;;;;;;;;;;;5036723;28;19920;-26
2022/07/21 01:23:25;;;;;;;;;;;;;;;;;;5036367;28;19909;-26
2022/07/21 01:25:51;;;;;;;;;;;;;;;;;;5036091;28;19992;-26
2022/07/21 01:28:17;;;;;;;;;;;;;;;;;;5036601;28;19910;-27
2022/07/21 01:30:43;;;;;;;;;;;;;;;;;;5035908;28;19916;-26
2022/07/21 01:33:09;;;;;;;;;;;;;;;;;;5035901;28;19909;-26
2022/07/21 01:35:35;;;;;;;;;;;;;;;;;;5035895;28;19913;-26
2022/07/21 01:38:02;;;;;;;;;;;;;;;;;;5036166;28;20047;-26
2022/07/21 01:43:13;;;;;;;;;;;;;;;;;;5035743;28;19924;-27
2022/07/21 01:45:39;;;;;;;;;;;;;;;;;;5035516;28;19921;-27
2022/07/21 01:48:05;;;;;;;;;;;;;;;;;;5035661;28;19999;-27
2022/07/21 01:50:31;;;;;;;;;;;;;;;;;;5036373;28;19921;-27
2022/07/21 01:52:58;;;;;;;;;;;;;;;;;;5034581;28;19909;-27
2022/07/21 01:55:24;;;;;;;;;;;;;;;;;;5035579;28;19919;-27
2022/07/21 01:57:50;;;;;;;;;;;;;;;;;;5035555;28;20003;-27
2022/07/21 02:00:16;;;;;;;;;;;;;;;;;;5035588;28;19951;-28
2022/07/21 02:02:42;;;;;;;;;;;;;;;;;;5035427;28;19917;-27
2022/07/21 02:05:08;;;;;;;;;;;;;;;;;;5035497;28;19909;-28
2022/07/21 02:07:33;;;;;;;;;;;;;;;;;;5035412;28;19920;-27
2022/07/21 02:10:00;;;;;;;;;;;;;;;;;;5035292;28;19913;-27
2022/07/21 02:12:26;;;;;;;;;;;;;;;;;;5035220;28;19912;-27
2022/07/21 02:14:52;;;;;;;;;;;;;;;;;;5035333;28;19913;-27
2022/07/21 02:17:18;;;;;;;;;;;;;;;;;;5035270;28;19917;-26
2022/07/21 02:19:44;;;;;;;;;;;;;;;;;;5035203;28;19926;-27
2022/07/21 02:22:10;;;;;;;;;;;;;;;;;;5035134;28;20268;-26
2022/07/21 02:24:36;;;;;;;;;;;;;;;;;;5035127;28;19915;-27
2022/07/21 02:27:02;;;;;;;;;;;;;;;;;;5035142;28;19917;-27
2022/07/21 02:29:28;;;;;;;;;;;;;;;;;;5035016;28;20295;-26
2022/07/21 02:31:54;;;;;;;;;;;;;;;;;;5034996;28;19913;-27
2022/07/21 02:34:20;;;;;;;;;;;;;;;;;;5035336;28;19909;-27
2022/07/21 02:36:46;;;;;;;;;;;;;;;;;;5035313;28;19924;-27
2022/07/21 02:39:12;;;;;;;;;;;;;;;;;;5035309;28;19914;-27
2022/07/21 02:41:38;;;;;;;;;;;;;;;;;;5035264;28;20234;-27
2022/07/21 02:44:04;;;;;;;;;;;;;;;;;;5034931;28;19916;-27
2022/07/21 02:46:30;;;;;;;;;;;;;;;;;;5034946;28;20385;-27
2022/07/21 02:48:56;;;;;;;;;;;;;;;;;;5035538;28;19917;-27
2022/07/21 02:51:22;;;;;;;;;;;;;;;;;;5034835;28;19921;-27
2022/07/21 02:53:48;;;;;;;;;;;;;;;;;;5034841;28;19920;-27
2022/07/21 02:56:14;;;;;;;;;;;;;;;;;;5035422;28;19913;-27
2022/07/21 02:58:40;;;;;;;;;;;;;;;;;;5035266;28;19999;-27
2022/07/21 03:01:06;;;;;;;;;;;;;;;;;;5035081;28;19917;-27
2022/07/21 03:03:32;;;;;;;;;;;;;;;;;;5034750;28;19913;-27
2022/07/21 03:05:58;;;;;;;;;;;;;;;;;;5034755;28;19966;-27
2022/07/21 03:08:24;;;;;;;;;;;;;;;;;;5035041;28;20004;-27
2022/07/21 03:10:49;;;;;;;;;;;;;;;;;;5034677;28;20026;-27
2022/07/21 03:13:15;;;;;;;;;;;;;;;;;;5034667;28;20055;-27
2022/07/21 03:15:41;;;;;;;;;;;;;;;;;;5034933;28;19975;-27
2022/07/21 03:18:07;;;;;;;;;;;;;;;;;;5035240;28;20305;-27
2022/07/21 03:20:33;;;;;;;;;;;;;;;;;;5034622;28;19913;-27
2022/07/21 03:22:59;;;;;;;;;;;;;;;;;;5034566;28;19909;-27
2022/07/21 03:25:25;;;;;;;;;;;;;;;;;;5034911;28;19909;-27
2022/07/21 03:27:51;;;;;;;;;;;;;;;;;;5034520;28;19924;-27
2022/07/21 03:30:17;;;;;;;;;;;;;;;;;;5034509;28;19913;-27
2022/07/21 03:32:43;;;;;;;;;;;;;;;;;;5034714;28;19913;-27
2022/07/21 03:35:10;;;;;;;;;;;;;;;;;;5035115;28;20349;-27
2022/07/21 03:37:36;;;;;;;;;;;;;;;;;;5036302;28;19924;-27
2022/07/21 03:40:02;;;;;;;;;;;;;;;;;;5038117;28;20329;-27
2022/07/21 03:42:28;;;;;;;;;;;;;;;;;;5037961;28;19919;-27
2022/07/21 03:44:54;;;;;;;;;;;;;;;;;;5037806;28;19928;-27
2022/07/21 03:47:20;;;;;;;;;;;;;;;;;;5037953;28;19920;-27
2022/07/21 03:49:46;;;;;;;;;;;;;;;;;;5037773;28;20241;-27
2022/07/21 03:52:12;;;;;;;;;;;;;;;;;;5038077;28;19920;-27
2022/07/21 03:54:38;;;;;;;;;;;;;;;;;;5037829;28;19914;-27
2022/07/21 03:57:04;;;;;;;;;;;;;;;;;;5037725;28;19913;-27
2022/07/21 03:59:30;;;;;;;;;;;;;;;;;;5037765;28;19909;-27
2022/07/21 04:01:56;;;;;;;;;;;;;;;;;;5037530;28;19917;-27
2022/07/21 04:04:22;;;;;;;;;;;;;;;;;;5037612;28;20029;-27
2022/07/21 04:06:48;;;;;;;;;;;;;;;;;;5037399;28;19913;-27
2022/07/21 04:09:13;;;;;;;;;;;;;;;;;;5037650;28;20348;-27
2022/07/21 04:11:39;;;;;;;;;;;;;;;;;;5038381;28;19928;-27
2022/07/21 04:14:05;;;;;;;;;;;;;;;;;;5037603;28;20336;-27
2022/07/21 04:16:31;;;;;;;;;;;;;;;;;;5037560;28;20013;-26
2022/07/21 04:18:57;;;;;;;;;;;;;;;;;;5037766;28;19920;-26
2022/07/21 04:21:23;;;;;;;;;;;;;;;;;;5036390;28;20303;-26
2022/07/21 04:23:49;;;;;;;;;;;;;;;;;;5037166;28;19913;-27
2022/07/21 04:26:15;;;;;;;;;;;;;;;;;;5037409;28;20321;-26
2022/07/21 04:28:41;;;;;;;;;;;;;;;;;;5037183;28;19913;-26
2022/07/21 04:31:07;;;;;;;;;;;;;;;;;;5037744;28;19928;-26
2022/07/21 04:33:34;;;;;;;;;;;;;;;;;;5036997;28;19909;-27
2022/07/21 04:36:00;;;;;;;;;;;;;;;;;;5037157;28;20004;-27
2022/07/21 04:38:26;;;;;;;;;;;;;;;;;;5037438;28;20349;-27
2022/07/21 04:40:52;;;;;;;;;;;;;;;;;;5036780;28;19949;-27
2022/07/21 04:43:18;;;;;;;;;;;;;;;;;;5037074;28;19916;-27
2022/07/21 04:45:44;;;;;;;;;;;;;;;;;;5036457;28;20392;-27
2022/07/21 04:48:10;;;;;;;;;;;;;;;;;;5035917;28;19909;-27
2022/07/21 04:50:36;;;;;;;;;;;;;;;;;;5036062;28;20055;-27
2022/07/21 04:53:02;;;;;;;;;;;;;;;;;;5036520;28;20380;-27
2022/07/21 04:55:28;;;;;;;;;;;;;;;;;;5036544;28;19992;-27
2022/07/21 04:57:54;;;;;;;;;;;;;;;;;;5036560;28;20260;-27
2022/07/21 05:00:20;;;;;;;;;;;;;;;;;;5036481;28;19913;-27
2022/07/21 05:02:46;;;;;;;;;;;;;;;;;;5036659;28;19952;-27
2022/07/21 05:05:12;;;;;;;;;;;;;;;;;;5036533;28;20247;-28
2022/07/21 05:07:38;;;;;;;;;;;;;;;;;;5036671;28;19913;-27
2022/07/21 05:10:04;;;;;;;;;;;;;;;;;;5036628;28;19961;-27
2022/07/21 05:12:30;;;;;;;;;;;;;;;;;;5036444;28;20234;-27
2022/07/21 05:14:56;;;;;;;;;;;;;;;;;;5036308;28;19915;-27
2022/07/21 05:17:22;;;;;;;;;;;;;;;;;;5036459;28;19991;-27
2022/07/21 05:19:50;;;;;;;;;;;;;;;;;;5036184;28;20354;-27
2022/07/21 05:22:16;;;;;;;;;;;;;;;;;;5035958;28;19916;-27
2022/07/21 05:24:41;;;;;;;;;;;;;;;;;;5036391;28;19913;-27
2022/07/21 05:27:07;;;;;;;;;;;;;;;;;;5036336;28;20015;-27
2022/07/21 05:29:33;;;;;;;;;;;;;;;;;;5035929;28;20367;-27
2022/07/21 05:31:59;;;;;;;;;;;;;;;;;;5036419;28;19945;-27
2022/07/21 05:34:25;;;;;;;;;;;;;;;;;;5035881;28;20386;-27
2022/07/21 05:36:52;;;;;;;;;;;;;;;;;;5035830;28;19917;-27
2022/07/21 05:39:18;;;;;;;;;;;;;;;;;;5036014;28;19912;-27
2022/07/21 05:41:44;;;;;;;;;;;;;;;;;;5036220;28;20359;-27
2022/07/21 05:44:10;;;;;;;;;;;;;;;;;;5035394;28;19952;-27
2022/07/21 05:46:36;;;;;;;;;;;;;;;;;;5035954;28;19913;-27
2022/07/21 05:49:02;;;;;;;;;;;;;;;;;;5035579;28;19909;-27
2022/07/21 05:51:28;;;;;;;;;;;;;;;;;;5035507;28;19959;-27
2022/07/21 05:53:54;;;;;;;;;;;;;;;;;;5035449;28;19914;-28
2022/07/21 05:56:20;;;;;;;;;;;;;;;;;;5035456;28;19997;-27
2022/07/21 05:58:46;;;;;;;;;;;;;;;;;;5035628;28;19971;-27
2022/07/21 06:03:54;;;;;;;;;;;;;;;;;;5095396;22;19960;-25
2022/07/21 06:06:20;;;;;;;;;;;;;;;;;;5015520;28;20271;-25
2022/07/21 06:08:46;;;;;;;;;;;;;;;;;;5016453;28;19913;-24
2022/07/21 06:11:12;;;;;;;;;;;;;;;;;;5014441;28;19944;-25
2022/07/21 06:13:38;;;;;;;;;;;;;;;;;;5015537;28;19910;-25
2022/07/21 06:16:04;;;;;;;;;;;;;;;;;;5015780;28;19920;-25
2022/07/21 06:18:30;;;;;;;;;;;;;;;;;;5015465;28;19914;-25
2022/07/21 06:20:56;;;;;;;;;;;;;;;;;;5014586;28;19945;-25
2022/07/21 06:23:22;;;;;;;;;;;;;;;;;;5015365;28;20378;-25
2022/07/21 06:25:48;;;;;;;;;;;;;;;;;;5015390;28;19913;-24
2022/07/21 06:28:14;;;;;;;;;;;;;;;;;;5014536;28;19909;-25
2022/07/21 06:30:40;;;;;;;;;;;;;;;;;;5015203;28;20434;-25
2022/07/21 06:33:06;;;;;;;;;;;;;;;;;;5015361;28;19941;-25
2022/07/21 06:35:32;;;;;;;;;;;;;;;;;;5015312;28;20375;-26
2022/07/21 06:37:58;;;;;;;;;;;;;;;;;;5015301;28;19921;-25
2022/07/21 06:40:24;;;;;;;;;;;;;;;;;;5015819;28;19956;-25
2022/07/21 06:42:50;;;;;;;;;;;;;;;;;;5015065;28;20295;-26
2022/07/21 06:45:16;;;;;;;;;;;;;;;;;;5015135;28;20380;-36
2022/07/21 06:47:42;;;;;;;;;;;;;;;;;;5015097;28;19914;-25
2022/07/21 06:50:08;;;;;;;;;;;;;;;;;;5015072;28;19928;-25
2022/07/21 06:52:34;;;;;;;;;;;;;;;;;;5015020;28;19977;-25
2022/07/21 06:55:00;;;;;;;;;;;;;;;;;;5013845;28;20071;-25
2022/07/21 06:57:26;;;;;;;;;;;;;;;;;;5015087;28;20268;-25
2022/07/21 06:59:52;;;;;;;;;;;;;;;;;;5013857;28;19977;-25
2022/07/21 07:02:18;;;;;;;;;;;;;;;;;;5014651;28;20375;-25
2022/07/21 07:04:44;;;;;;;;;;;;;;;;;;5015314;28;19917;-25
2022/07/21 07:07:10;;;;;;;;;;;;;;;;;;5013899;28;20260;-25
2022/07/21 07:09:36;;;;;;;;;;;;;;;;;;5015134;28;19921;-25
2022/07/21 07:12:08;;;;;;;;;;;;;;;;;;5015413;28;19921;-25
2022/07/21 07:14:34;;;;;;;;;;;;;;;;;;5018463;28;19909;-24
2022/07/21 07:17:00;;;;;;;;;;;;;;;;;;5018229;28;19996;-25
2022/07/21 07:19:26;;;;;;;;;;;;;;;;;;5018225;28;19951;-25
2022/07/21 07:21:52;;;;;;;;;;;;;;;;;;5018130;28;19913;-25
2022/07/21 07:24:18;;;;;;;;;;;;;;;;;;5018528;28;19909;-25
2022/07/21 07:26:44;;;;;;;;;;;;;;;;;;5017213;28;19913;-26
2022/07/21 07:29:10;;;;;;;;;;;;;;;;;;5018212;28;19925;-25
2022/07/21 07:31:36;;;;;;;;;;;;;;;;;;5018032;28;20004;-25
2022/07/21 07:34:02;;;;;;;;;;;;;;;;;;5018394;28;19914;-25
2022/07/21 07:36:28;;;;;;;;;;;;;;;;;;5018172;28;20283;-25
2022/07/21 07:38:54;;;;;;;;;;;;;;;;;;5018128;28;20307;-25
2022/07/21 07:41:20;;;;;;;;;;;;;;;;;;5016838;28;19924;-25
2022/07/21 07:43:46;;;;;;;;;;;;;;;;;;5017810;28;19914;-25
2022/07/21 07:46:13;;;;;;;;;;;;;;;;;;5017650;28;19917;-24
2022/07/21 07:48:40;;;;;;;;;;;;;;;;;;5018266;28;19920;-25
2022/07/21 07:51:06;;;;;;;;;;;;;;;;;;5017783;28;19917;-25
2022/07/21 07:53:32;;;;;;;;;;;;;;;;;;5016518;28;19914;-24
2022/07/21 07:55:58;;;;;;;;;;;;;;;;;;5016500;28;19925;-24
2022/07/21 07:58:24;;;;;;;;;;;;;;;;;;5017541;28;19910;-24
2022/07/21 08:00:50;;;;;;;;;;;;;;;;;;5017724;28;19981;-25
2022/07/21 08:03:16;;;;;;;;;;;;;;;;;;5017351;28;19988;-25
2022/07/21 08:05:42;;;;;;;;;;;;;;;;;;5017118;28;20135;-25
2022/07/21 08:08:08;;;;;;;;;;;;;;;;;;5017622;28;19933;-25
2022/07/21 08:10:34;;;;;;;;;;;;;;;;;;5017287;28;20188;-25
2022/07/21 08:13:00;;;;;;;;;;;;;;;;;;5017195;28;19953;-24
2022/07/21 08:15:26;;;;;;;;;;;;;;;;;;5016272;28;20024;-24
2022/07/21 08:17:52;;;;;;;;;;;;;;;;;;5017428;28;19948;-24
2022/07/21 08:20:18;;;;;;;;;;;;;;;;;;5017760;28;19914;-24
2022/07/21 08:22:44;;;;;;;;;;;;;;;;;;5016854;28;19921;-24
2022/07/21 08:25:10;;;;;;;;;;;;;;;;;;5016160;28;20017;-25
2022/07/21 08:27:38;;;;;;;;;;;;;;;;;;5016081;28;19976;-24
2022/07/21 08:30:04;;;;;;;;;;;;;;;;;;5017218;28;19928;-25
2022/07/21 08:32:30;;;;;;;;;;;;;;;;;;5016798;28;19918;-24
2022/07/21 08:34:56;;;;;;;;;;;;;;;;;;5017061;28;20213;-24
2022/07/21 08:37:22;;;;;;;;;;;;;;;;;;5015710;28;19933;-24
2022/07/21 08:39:48;;;;;;;;;;;;;;;;;;5016621;28;19909;-25
2022/07/21 08:42:14;;;;;;;;;;;;;;;;;;5016517;28;19917;-24
2022/07/21 08:44:40;;;;;;;;;;;;;;;;;;5016624;28;19942;-25
2022/07/21 08:47:06;;;;;;;;;;;;;;;;;;5016572;28;19945;-24
2022/07/21 08:49:32;;;;;;;;;;;;;;;;;;5016893;28;19917;-25
2022/07/21 08:51:58;;;;;;;;;;;;;;;;;;5015513;28;19917;-24
2022/07/21 08:54:24;;;;;;;;;;;;;;;;;;5016524;28;19910;-24
2022/07/21 08:56:50;;;;;;;;;;;;;;;;;;5016518;28;19918;-25
2022/07/21 08:59:16;;;;;;;;;;;;;;;;;;5015551;28;19920;-25
2022/07/21 09:01:42;;;;;;;;;;;;;;;;;;5016376;28;19914;-24
2022/07/21 09:04:08;;;;;;;;;;;;;;;;;;5016208;28;19928;-26
2022/07/21 09:06:34;;;;;;;;;;;;;;;;;;5016557;28;19921;-25
2022/07/21 09:09:01;;;;;;;;;;;;;;;;;;5016598;28;19921;-25
2022/07/21 09:11:27;;;;;;;;;;;;;;;;;;5016484;28;19918;-24
2022/07/21 09:13:53;;;;;;;;;;;;;;;;;;5016696;28;20056;-25
2022/07/21 09:16:19;;;;;;;;;;;;;;;;;;5016445;28;20004;-25
2022/07/21 09:18:45;;;;;;;;;;;;;;;;;;5016468;28;19916;-24
2022/07/21 09:21:11;;;;;;;;;;;;;;;;;;5016416;28;19914;-25
2022/07/21 09:23:37;;;;;;;;;;;;;;;;;;5015303;28;19921;-24
2022/07/21 09:26:03;;;;;;;;;;;;;;;;;;5016552;28;19996;-25
2022/07/21 09:28:29;;;;;;;;;;;;;;;;;;5016089;28;19948;-25
2022/07/21 09:30:55;;;;;;;;;;;;;;;;;;5016255;28;19922;-25
2022/07/21 09:33:21;;;;;;;;;;;;;;;;;;5015923;28;19972;-25
2022/07/21 09:35:47;;;;;;;;;;;;;;;;;;5015492;28;19917;-26
2022/07/21 09:38:13;;;;;;;;;;;;;;;;;;5016382;28;19911;-25
2022/07/21 09:40:39;;;;;;;;;;;;;;;;;;5015903;28;19921;-25
2022/07/21 09:43:05;;;;;;;;;;;;;;;;;;5015903;28;19913;-26
2022/07/21 09:45:31;;;;;;;;;;;;;;;;;;5015863;28;20355;-25
2022/07/21 09:47:57;;;;;;;;;;;;;;;;;;5014828;28;20259;-25
2022/07/21 09:50:23;;;;;;;;;;;;;;;;;;5015869;28;19913;-25
2022/07/21 09:52:49;;;;;;;;;;;;;;;;;;5014829;28;20296;-26
2022/07/21 09:55:15;;;;;;;;;;;;;;;;;;5015668;28;19909;-26
2022/07/21 09:57:41;;;;;;;;;;;;;;;;;;5016231;28;19913;-26
2022/07/21 10:00:07;;;;;;;;;;;;;;;;;;5015658;28;19910;-25
2022/07/21 10:02:33;;;;;;;;;;;;;;;;;;5015503;28;19952;-25
2022/07/21 10:04:59;;;;;;;;;;;;;;;;;;5015708;28;19909;-25
2022/07/21 10:07:25;;;;;;;;;;;;;;;;;;5015587;28;20012;-26
2022/07/21 10:09:52;;;;;;;;;;;;;;;;;;5015528;28;19910;-25
2022/07/21 10:12:18;;;;;;;;;;;;;;;;;;5015968;28;19925;-25
2022/07/21 10:14:44;;;;;;;;;;;;;;;;;;5015529;28;19914;-26
2022/07/21 10:17:10;;;;;;;;;;;;;;;;;;5014441;28;19913;-26
2022/07/21 10:19:35;;;;;;;;;;;;;;;;;;5015333;28;19933;-25
2022/07/21 10:22:02;;;;;;;;;;;;;;;;;;5015433;28;20004;-25
2022/07/21 10:24:28;;;;;;;;;;;;;;;;;;5015645;28;19913;-25
2022/07/21 10:26:54;;;;;;;;;;;;;;;;;;5015387;28;19924;-26
2022/07/21 10:29:20;;;;;;;;;;;;;;;;;;5015615;28;19910;-25
2022/07/21 10:31:46;;;;;;;;;;;;;;;;;;5015249;28;19913;-26
2022/07/21 10:34:11;;;;;;;;;;;;;;;;;;5015213;28;19936;-26
2022/07/21 10:36:37;;;;;;;;;;;;;;;;;;5015491;28;19906;-26
2022/07/21 10:39:03;;;;;;;;;;;;;;;;;;5015155;28;19960;-26
2022/07/21 10:41:29;;;;;;;;;;;;;;;;;;5014152;28;19997;-25
2022/07/21 10:43:56;;;;;;;;;;;;;;;;;;5013993;28;19963;-25
2022/07/21 10:46:21;;;;;;;;;;;;;;;;;;5015093;28;19917;-25
2022/07/21 10:48:48;;;;;;;;;;;;;;;;;;5018696;28;19982;-25
2022/07/21 10:51:14;;;;;;;;;;;;;;;;;;5017965;28;20349;-26
2022/07/21 10:53:40;;;;;;;;;;;;;;;;;;5018934;28;19925;-26
2022/07/21 10:56:06;;;;;;;;;;;;;;;;;;5018868;28;19913;-26
2022/07/21 10:58:32;;;;;;;;;;;;;;;;;;5017866;28;20317;-26
2022/07/21 11:00:58;;;;;;;;;;;;;;;;;;5018602;28;19940;-26
2022/07/21 11:03:26;;;;;;;;;;;;;;;;;;5018591;28;19925;-26
2022/07/21 11:05:52;;;;;;;;;;;;;;;;;;5018720;28;19914;-25
2022/07/21 11:08:19;;;;;;;;;;;;;;;;;;5018912;28;19909;-25
2022/07/21 11:10:45;;;;;;;;;;;;;;;;;;5018791;28;19925;-25
2022/07/21 11:13:11;;;;;;;;;;;;;;;;;;5019126;28;19914;-26
2022/07/21 11:15:37;;;;;;;;;;;;;;;;;;5018981;28;19917;-25
2022/07/21 11:18:03;;;;;;;;;;;;;;;;;;5018928;28;19971;-25
2022/07/21 11:20:29;;;;;;;;;;;;;;;;;;5018666;28;19913;-25
2022/07/21 11:23:02;;;;;;;;;;;;;;;;;;5017357;28;20367;-25
2022/07/21 11:25:28;;;;;;;;;;;;;;;;;;5018524;28;19921;-26
2022/07/21 11:27:54;;;;;;;;;;;;;;;;;;5018965;28;19913;-25
2022/07/21 11:30:20;;;;;;;;;;;;;;;;;;5018506;28;19925;-25
2022/07/21 11:32:47;;;;;;;;;;;;;;;;;;5018484;28;19914;-26
2022/07/21 11:35:13;;;;;;;;;;;;;;;;;;5017395;28;19915;-25
2022/07/21 11:37:39;;;;;;;;;;;;;;;;;;5018311;28;19913;-26
2022/07/21 11:40:05;;;;;;;;;;;;;;;;;;5018702;28;20005;-25
2022/07/21 11:42:31;;;;;;;;;;;;;;;;;;5018280;28;20320;-25
2022/07/21 11:44:57;;;;;;;;;;;;;;;;;;5018471;28;19917;-26
2022/07/21 11:47:26;;;;;;;;;;;;;;;;;;5018281;28;19932;-25
2022/07/21 11:49:52;;;;;;;;;;;;;;;;;;5018114;28;19997;-25
2022/07/21 11:52:19;;;;;;;;;;;;;;;;;;5017896;28;19909;-25
2022/07/21 11:54:45;;;;;;;;;;;;;;;;;;5018384;28;19936;-25
2022/07/21 11:57:11;;;;;;;;;;;;;;;;;;5017103;28;19928;-25
2022/07/21 11:59:38;;;;;;;;;;;;;;;;;;5016475;28;19910;-25
2022/07/21 12:02:04;;;;;;;;;;;;;;;;;;5017752;28;19921;-26
2022/07/21 12:04:30;;;;;;;;;;;;;;;;;;5017713;28;19910;-25
2022/07/21 12:06:56;;;;;;;;;;;;;;;;;;5017824;28;19917;-25
2022/07/21 12:09:22;;;;;;;;;;;;;;;;;;5018232;28;19920;-25
2022/07/21 12:11:48;;;;;;;;;;;;;;;;;;5018297;28;20056;-25
2022/07/21 12:14:14;;;;;;;;;;;;;;;;;;5017655;28;19917;-25
2022/07/21 12:16:40;;;;;;;;;;;;;;;;;;5017753;28;20024;-25
2022/07/21 12:19:07;;;;;;;;;;;;;;;;;;5017869;28;19913;-25
2022/07/21 12:21:33;;;;;;;;;;;;;;;;;;5017774;28;19933;-25
2022/07/21 12:23:59;;;;;;;;;;;;;;;;;;5017431;28;19909;-25
2022/07/21 12:26:25;;;;;;;;;;;;;;;;;;5017400;28;19910;-26
2022/07/21 12:28:56;;;;;;;;;;;;;;;;;;5017389;28;19936;-26
2022/07/21 12:31:23;;;;;;;;;;;;;;;;;;5017708;28;20359;-26
2022/07/21 12:33:49;;;;;;;;;;;;;;;;;;5017328;28;19910;-25
2022/07/21 12:36:15;;;;;;;;;;;;;;;;;;5017806;28;19924;-25
2022/07/21 12:38:41;;;;;;;;;;;;;;;;;;5017057;28;19913;-25
2022/07/21 12:41:07;;;;;;;;;;;;;;;;;;5017107;28;20276;-25
2022/07/21 12:43:34;;;;;;;;;;;;;;;;;;5017155;28;19914;-25
2022/07/21 12:45:59;;;;;;;;;;;;;;;;;;5017112;28;19913;-25
2022/07/21 12:48:26;;;;;;;;;;;;;;;;;;5016922;28;20260;-25
2022/07/21 12:50:52;;;;;;;;;;;;;;;;;;5017389;28;19918;-25
2022/07/21 12:53:18;;;;;;;;;;;;;;;;;;5016713;28;19913;-25
2022/07/21 12:55:44;;;;;;;;;;;;;;;;;;5016833;28;20004;-25
2022/07/21 12:58:09;;;;;;;;;;;;;;;;;;5015814;28;19925;-26
2022/07/21 13:00:35;;;;;;;;;;;;;;;;;;5016701;28;20252;-25
2022/07/21 13:03:02;;;;;;;;;;;;;;;;;;5016851;28;20012;-26
2022/07/21 13:05:28;;;;;;;;;;;;;;;;;;5017063;28;19913;-25
2022/07/21 13:07:54;;;;;;;;;;;;;;;;;;5016540;28;19913;-25
2022/07/21 13:10:20;;;;;;;;;;;;;;;;;;5015854;28;19925;-25
2022/07/21 13:12:46;;;;;;;;;;;;;;;;;;5016667;28;19925;-25
2022/07/21 13:15:12;;;;;;;;;;;;;;;;;;5017070;28;20251;-25
2022/07/21 13:17:38;;;;;;;;;;;;;;;;;;5016335;28;19909;-25
2022/07/21 13:20:05;;;;;;;;;;;;;;;;;;5016942;28;19914;-25
2022/07/21 13:22:31;;;;;;;;;;;;;;;;;;5016592;28;20017;-26
2022/07/21 13:24:57;;;;;;;;;;;;;;;;;;5016412;28;19948;-25
2022/07/21 13:27:23;;;;;;;;;;;;;;;;;;5015261;28;19921;-25
2022/07/21 13:29:49;;;;;;;;;;;;;;;;;;5016463;28;20350;-25
2022/07/21 13:32:15;;;;;;;;;;;;;;;;;;5016130;28;20246;-25
2022/07/21 13:34:41;;;;;;;;;;;;;;;;;;5016242;28;19913;-25
2022/07/21 13:37:11;;;;;;;;;;;;;;;;;;5015099;28;19975;-25
2022/07/21 13:39:37;;;;;;;;;;;;;;;;;;5016095;28;19925;-26
2022/07/21 13:42:03;;;;;;;;;;;;;;;;;;5015990;28;19964;-25
2022/07/21 13:44:29;;;;;;;;;;;;;;;;;;5016184;28;19910;-25
2022/07/21 13:46:55;;;;;;;;;;;;;;;;;;5016726;28;20002;-25
2022/07/21 13:49:21;;;;;;;;;;;;;;;;;;5015326;28;20347;-25
2022/07/21 13:51:47;;;;;;;;;;;;;;;;;;5016296;28;19913;-25
2022/07/21 13:54:13;;;;;;;;;;;;;;;;;;5015799;28;19965;-25
2022/07/21 13:56:39;;;;;;;;;;;;;;;;;;5015855;28;20028;-25
2022/07/21 13:59:05;;;;;;;;;;;;;;;;;;5014839;28;19937;-25
2022/07/21 14:01:31;;;;;;;;;;;;;;;;;;5015791;28;19913;-25
2022/07/21 14:03:57;;;;;;;;;;;;;;;;;;5015408;28;20275;-25
2022/07/21 14:06:23;;;;;;;;;;;;;;;;;;5015603;28;19920;-25
2022/07/21 14:08:49;;;;;;;;;;;;;;;;;;5015906;28;20004;-25
2022/07/21 14:11:15;;;;;;;;;;;;;;;;;;5015453;28;19984;-25
2022/07/21 14:13:41;;;;;;;;;;;;;;;;;;5015514;28;19956;-25
2022/07/21 14:16:07;;;;;;;;;;;;;;;;;;5016056;28;19914;-25
2022/07/21 14:18:33;;;;;;;;;;;;;;;;;;5014659;28;20348;-25
2022/07/21 14:20:59;;;;;;;;;;;;;;;;;;5015225;28;19976;-25
2022/07/21 14:23:25;;;;;;;;;;;;;;;;;;5015349;28;19983;-25
2022/07/21 14:25:51;;;;;;;;;;;;;;;;;;5015363;28;19913;-26
2022/07/21 14:28:17;;;;;;;;;;;;;;;;;;5015414;28;19910;-25
2022/07/21 14:30:43;;;;;;;;;;;;;;;;;;5015502;28;20003;-26
2022/07/21 14:33:09;;;;;;;;;;;;;;;;;;5015992;28;19952;-25
2022/07/21 14:35:35;;;;;;;;;;;;;;;;;;5015314;28;19909;-25
2022/07/21 14:38:01;;;;;;;;;;;;;;;;;;5014288;28;20348;-26
2022/07/21 14:40:27;;;;;;;;;;;;;;;;;;5015584;28;20004;-25
2022/07/21 14:42:53;;;;;;;;;;;;;;;;;;5015430;28;20008;-26
2022/07/21 14:45:19;;;;;;;;;;;;;;;;;;5015105;28;19917;-26
2022/07/21 14:47:48;;;;;;;;;;;;;;;;;;5016180;28;19909;-25
2022/07/21 14:50:14;;;;;;;;;;;;;;;;;;5014969;28;19917;-26
2022/07/21 14:52:40;;;;;;;;;;;;;;;;;;5014979;28;19937;-26
2022/07/21 14:55:06;;;;;;;;;;;;;;;;;;5015071;28;19920;-26
2022/07/21 14:57:32;;;;;;;;;;;;;;;;;;5015064;28;19916;-25
2022/07/21 14:59:58;;;;;;;;;;;;;;;;;;5015026;28;20345;-26
2022/07/21 15:02:24;;;;;;;;;;;;;;;;;;5014916;28;19929;-25
2022/07/21 15:04:50;;;;;;;;;;;;;;;;;;5015034;28;20260;-26
2022/07/21 15:07:16;;;;;;;;;;;;;;;;;;5015267;28;20259;-25
2022/07/21 15:09:43;;;;;;;;;;;;;;;;;;5014858;28;19909;-26
2022/07/21 15:12:09;;;;;;;;;;;;;;;;;;5014693;28;19996;-26
2022/07/21 15:14:35;;;;;;;;;;;;;;;;;;5015184;28;19909;-26
2022/07/21 15:17:01;;;;;;;;;;;;;;;;;;5014885;28;19919;-26
2022/07/21 15:19:27;;;;;;;;;;;;;;;;;;5014881;28;19909;-26
2022/07/21 15:21:53;;;;;;;;;;;;;;;;;;5014841;28;20325;-25
2022/07/21 15:24:19;;;;;;;;;;;;;;;;;;5014919;28;19953;-26
2022/07/21 15:26:45;;;;;;;;;;;;;;;;;;5013904;28;19925;-26
2022/07/21 15:29:11;;;;;;;;;;;;;;;;;;5015184;28;19909;-25
2022/07/21 15:31:38;;;;;;;;;;;;;;;;;;5015243;28;19924;-25
2022/07/21 15:34:03;;;;;;;;;;;;;;;;;;5017785;28;19914;-26
2022/07/21 15:36:30;;;;;;;;;;;;;;;;;;5018775;28;19920;-25
2022/07/21 15:38:56;;;;;;;;;;;;;;;;;;5018727;28;19940;-25
2022/07/21 15:41:22;;;;;;;;;;;;;;;;;;5018329;28;19914;-25
2022/07/21 15:43:48;;;;;;;;;;;;;;;;;;5017160;28;19970;-25
2022/07/21 15:46:14;;;;;;;;;;;;;;;;;;5018277;28;19917;-25
2022/07/21 15:48:41;;;;;;;;;;;;;;;;;;5018174;28;19918;-25
2022/07/21 15:51:08;;;;;;;;;;;;;;;;;;5018357;28;20020;-25
2022/07/21 15:53:36;;;;;;;;;;;;;;;;;;5018308;28;19913;-25
2022/07/21 15:56:02;;;;;;;;;;;;;;;;;;5018024;28;19913;-26
2022/07/21 15:58:28;;;;;;;;;;;;;;;;;;5018041;28;19921;-26
2022/07/21 16:00:54;;;;;;;;;;;;;;;;;;5018270;28;20256;-25
2022/07/21 16:03:20;;;;;;;;;;;;;;;;;;5017557;28;19926;-37
2022/07/21 16:05:46;;;;;;;;;;;;;;;;;;5017980;28;19919;-26
2022/07/21 16:08:12;;;;;;;;;;;;;;;;;;5017877;28;19996;-26
2022/07/21 16:10:38;;;;;;;;;;;;;;;;;;5017689;28;20268;-25
2022/07/21 16:13:03;;;;;;;;;;;;;;;;;;5017607;28;19909;-26
2022/07/21 16:15:29;;;;;;;;;;;;;;;;;;5018250;28;19913;-26
2022/07/21 16:17:56;;;;;;;;;;;;;;;;;;5017622;28;19960;-25
2022/07/21 16:20:22;;;;;;;;;;;;;;;;;;5016697;28;19913;-26
2022/07/21 16:22:48;;;;;;;;;;;;;;;;;;5017756;28;20042;-25
2022/07/21 16:25:14;;;;;;;;;;;;;;;;;;5017812;28;19953;-25
2022/07/21 16:27:40;;;;;;;;;;;;;;;;;;5017409;28;19920;-25
2022/07/21 16:30:06;;;;;;;;;;;;;;;;;;5017583;28;19913;-26
2022/07/21 16:32:32;;;;;;;;;;;;;;;;;;5017317;28;19913;-25
2022/07/21 16:34:58;;;;;;;;;;;;;;;;;;5017601;28;19935;-25
2022/07/21 16:37:24;;;;;;;;;;;;;;;;;;5016305;28;19913;-25
2022/07/21 16:39:50;;;;;;;;;;;;;;;;;;5017282;28;19910;-26
2022/07/21 16:42:16;;;;;;;;;;;;;;;;;;5016126;28;19913;-26